Terminal Aerodrome Forecast
Issued by NWS

Home | Current Version | Previous Version | Text Only | Print | Product List | Glossary On
Versions: 1 2 3 4 5 6 7 8 9 10 11 12 13 14 15 16 17 18 19 20 21 22 23 24 25
000
FTUS46 KSEW 262100 AAA
TAFSEA
TAF AMD
KSEA 262102Z 2621/2724 24005KT P6SM FEW030 SCT150 BKN200
     FM270300 VRB04KT P6SM BKN200
     FM271200 15004KT P6SM BKN015 BKN200
     FM271800 20006KT P6SM SCT030 BKN120 BKN200=

USA.gov is the U.S. government's official web portal to all federal, state and local government web resources and services.